Terminal Aerodrome Forecast
Issued by NWS Boston, MA

Home | Current Version | Previous Version | Text Only | Print | Product List | Glossary On
Versions: 1 2 3 4 5 6 7 8 9 10 11 12 13 14 15 16 17 18 19 20 21 22 23 24 25 26 27 28 29 30 31 32 33 34 35 36 37 38 39 40 41 42 43 44 45 46 47 48 49
000
FTUS41 KBOX 272325
TAFPVD
TAF
KPVD 272325Z 2800/2824 04012KT 2SM -DZ BR OVC007
     FM280400 03010G18KT 1SM -DZ BR OVC006
     FM281300 02006KT P6SM OVC010
     FM281700 03004KT P6SM BKN020
     FM281900 14005KT P6SM BKN035
     FM282200 18005KT P6SM BKN150=

USA.gov is the U.S. government's official web portal to all federal, state and local government web resources and services.